Map

Track Data

SID SEASON NUMBER BASIN SUBBASIN NAME ISO_TIME NATURE LAT LON WMO_WIND WMO_PRES WMO_AGENCY TRACK_TYPE DIST2LAND LANDFALL IFLAG USA_AGENCY USA_ATCF_ID USA_LAT USA_LON USA_RECORD USA_STATUS USA_WIND USA_PRES USA_SSHS USA_R34_NE USA_R34_SE USA_R34_SW USA_R34_NW USA_R50_NE USA_R50_SE USA_R50_SW USA_R50_NW USA_R64_NE USA_R64_SE USA_R64_SW USA_R64_NW USA_POCI USA_ROCI USA_RMW USA_EYE TOKYO_LAT TOKYO_LON TOKYO_GRADE TOKYO_WIND TOKYO_PRES TOKYO_R50_DIR TOKYO_R50_LONG TOKYO_R50_SHORT TOKYO_R30_DIR TOKYO_R30_LONG TOKYO_R30_SHORT TOKYO_LAND CMA_LAT CMA_LON CMA_CAT CMA_WIND CMA_PRES HKO_LAT HKO_LON HKO_CAT HKO_WIND HKO_PRES NEWDELHI_LAT NEWDELHI_LON NEWDELHI_GRADE NEWDELHI_WIND NEWDELHI_PRES NEWDELHI_CI NEWDELHI_DP NEWDELHI_POCI REUNION_LAT REUNION_LON REUNION_TYPE REUNION_WIND REUNION_PRES REUNION_TNUM REUNION_CI REUNION_RMW REUNION_R34_NE REUNION_R34_SE REUNION_R34_SW REUNION_R34_NW REUNION_R50_NE REUNION_R50_SE REUNION_R50_SW REUNION_R50_NW REUNION_R64_NE REUNION_R64_SE REUNION_R64_SW REUNION_R64_NW BOM_LAT BOM_LON BOM_TYPE BOM_WIND BOM_PRES BOM_TNUM BOM_CI BOM_RMW BOM_R34_NE BOM_R34_SE BOM_R34_SW BOM_R34_NW BOM_R50_NE BOM_R50_SE BOM_R50_SW BOM_R50_NW BOM_R64_NE BOM_R64_SE BOM_R64_SW BOM_R64_NW BOM_ROCI BOM_POCI BOM_EYE BOM_POS_METHOD BOM_PRES_METHOD NADI_LAT NADI_LON NADI_CAT NADI_WIND NADI_PRES WELLINGTON_LAT WELLINGTON_LON WELLINGTON_WIND WELLINGTON_PRES DS824_LAT DS824_LON DS824_STAGE DS824_WIND DS824_PRES TD9636_LAT TD9636_LON TD9636_STAGE TD9636_WIND TD9636_PRES TD9635_LAT TD9635_LON TD9635_WIND TD9635_PRES TD9635_ROCI NEUMANN_LAT NEUMANN_LON NEUMANN_CLASS NEUMANN_WIND NEUMANN_PRES MLC_LAT MLC_LON MLC_CLASS MLC_WIND MLC_PRES USA_GUST BOM_GUST BOM_GUST_PER REUNION_GUST REUNION_GUST_PER USA_SEAHGT USA_SEARAD_NE USA_SEARAD_SE USA_SEARAD_SW USA_SEARAD_NW STORM_SPEED STORM_DIR
1930292N20265 1930 50 NA GM NOT_NAMED 1930-10-18 12:00:00 TS 20.0000 -95.5000 30 hurdat_atl main 94 94 O_____________ hurdat_atl AL031930 20.0000 -95.5000 TD 30 -1 3 89
1930292N20265 1930 50 NA GM NOT_NAMED 1930-10-18 15:00:00 TS 20.0025 -95.3525 main 105 105 P_____________ AL031930 20.0025 -95.3525 TD 32 -1 3 90
1930292N20265 1930 50 NA GM NOT_NAMED 1930-10-18 18:00:00 TS 20.0000 -95.2000 35 hurdat_atl main 125 125 O_____________ hurdat_atl AL031930 20.0000 -95.2000 TS 35 0 3 92
1930292N20265 1930 50 NA GM NOT_NAMED 1930-10-18 21:00:00 TS 19.9925 -95.0425 main 145 145 P_____________ AL031930 19.9925 -95.0425 TS 40 0 3 90
1930292N20265 1930 50 NA GM NOT_NAMED 1930-10-19 00:00:00 TS 20.0000 -94.9000 45 hurdat_atl main 148 148 O_____________ hurdat_atl AL031930 20.0000 -94.9000 TS 45 0 2 80
1930292N20265 1930 50 NA GM NOT_NAMED 1930-10-19 03:00:00 TS 20.0350 -94.7925 main 151 151 P_____________ AL031930 20.0350 -94.7925 TS 52 0 2 62
1930292N20265 1930 50 NA GM NOT_NAMED 1930-10-19 06:00:00 TS 20.1000 -94.7000 60 hurdat_atl main 165 165 O_____________ hurdat_atl AL031930 20.1000 -94.7000 TS 60 0 2 49
1930292N20265 1930 50 NA GM NOT_NAMED 1930-10-19 09:00:00 TS 20.1925 -94.6000 main 179 179 P_____________ AL031930 20.1925 -94.6000 TS 60 0 3 44
1930292N20265 1930 50 NA GM NOT_NAMED 1930-10-19 12:00:00 TS 20.3000 -94.5000 60 hurdat_atl main 193 193 O_____________ hurdat_atl AL031930 20.3000 -94.5000 TS 60 0 3 44
1930292N20265 1930 50 NA GM NOT_NAMED 1930-10-19 15:00:00 TS 20.3925 -94.3925 main 207 207 P_____________ AL031930 20.3925 -94.3925 TS 60 0 3 43
1930292N20265 1930 50 NA GM NOT_NAMED 1930-10-19 18:00:00 TS 20.5000 -94.3000 60 hurdat_atl main 222 222 O_____________ hurdat_atl AL031930 20.5000 -94.3000 TS 60 0 3 30
1930292N20265 1930 50 NA GM NOT_NAMED 1930-10-19 21:00:00 TS 20.6425 -94.2425 main 236 236 P_____________ AL031930 20.6425 -94.2425 TS 57 0 3 17
1930292N20265 1930 50 NA GM NOT_NAMED 1930-10-20 00:00:00 TS 20.8000 -94.2000 55 hurdat_atl main 250 250 O_____________ hurdat_atl AL031930 20.8000 -94.2000 TS 55 0 3 16
1930292N20265 1930 50 NA GM NOT_NAMED 1930-10-20 03:00:00 TS 20.9425 -94.1500 main 264 264 P_____________ AL031930 20.9425 -94.1500 TS 52 0 3 17
1930292N20265 1930 50 NA GM NOT_NAMED 1930-10-20 06:00:00 TS 21.1000 -94.1000 50 hurdat_atl main 274 274 O_____________ hurdat_atl AL031930 21.1000 -94.1000 TS 50 0 4 16
1930292N20265 1930 50 NA GM NOT_NAMED 1930-10-20 09:00:00 TS 21.2850 -94.0425 main 294 294 P_____________ AL031930 21.2850 -94.0425 TS 47 0 4 13
1930292N20265 1930 50 NA GM NOT_NAMED 1930-10-20 12:00:00 TS 21.5000 -94.0000 45 hurdat_atl main 307 307 O_____________ hurdat_atl AL031930 21.5000 -94.0000 TS 45 0 5 4
1930292N20265 1930 50 NA GM NOT_NAMED 1930-10-20 15:00:00 TS 21.7350 -93.9925 main 320 320 P_____________ AL031930 21.7350 -93.9925 TS 42 0 5 2
1930292N20265 1930 50 NA GM NOT_NAMED 1930-10-20 18:00:00 TS 22.0000 -94.0000 40 hurdat_atl main 342 342 O_____________ hurdat_atl AL031930 22.0000 -94.0000 TS 40 0 6 0
1930292N20265 1930 50 NA GM NOT_NAMED 1930-10-20 21:00:00 TS 22.2850 -94.0000 main 349 349 P_____________ AL031930 22.2850 -94.0000 TS 37 0 6 1
1930292N20265 1930 50 NA GM NOT_NAMED 1930-10-21 00:00:00 TS 22.6000 -94.0000 35 hurdat_atl main 357 357 O_____________ hurdat_atl AL031930 22.6000 -94.0000 TS 35 0 7 0
1930292N20265 1930 50 NA GM NOT_NAMED 1930-10-21 03:00:00 TS 22.9425 -94.0000 main 369 369 P_____________ AL031930 22.9425 -94.0000 TS 32 -1 7 0
1930292N20265 1930 50 NA GM NOT_NAMED 1930-10-21 06:00:00 TS 23.3000 -94.0000 30 hurdat_atl main 387 O_____________ hurdat_atl AL031930 23.3000 -94.0000 TD 30 -1 7 4

About IBTrACS Database

This database is a web-friendly format of International Best Track Archive for Climate Stewardship (IBTrACS), a global best track data archive curated by NOAA dating back to 1842.

Updated: 2021-10-27